sensor_id;sensor_type;location;lat;lon;timestamp;P1;durP1;ratioP1;P2;durP2;ratioP2
21731;SDS011;11028;51.156;17.130;2023-04-24T00:01:40;12.55;;;8.60;;
21731;SDS011;11028;51.156;17.130;2023-04-24T00:08:59;14.40;;;9.23;;
21731;SDS011;11028;51.156;17.130;2023-04-24T00:16:18;17.33;;;9.20;;
21731;SDS011;11028;51.156;17.130;2023-04-24T00:23:38;14.93;;;9.23;;
21731;SDS011;11028;51.156;17.130;2023-04-24T00:30:57;17.55;;;9.88;;
21731;SDS011;11028;51.156;17.130;2023-04-24T00:38:15;16.70;;;10.07;;
21731;SDS011;11028;51.156;17.130;2023-04-24T00:45:35;15.77;;;9.85;;
21731;SDS011;11028;51.156;17.130;2023-04-24T00:52:53;16.90;;;10.88;;
21731;SDS011;11028;51.156;17.130;2023-04-24T01:00:12;16.85;;;10.32;;
21731;SDS011;11028;51.156;17.130;2023-04-24T01:07:33;16.48;;;10.95;;
21731;SDS011;11028;51.156;17.130;2023-04-24T01:14:52;18.27;;;10.90;;
21731;SDS011;11028;51.156;17.130;2023-04-24T01:22:12;17.83;;;11.00;;
21731;SDS011;11028;51.156;17.130;2023-04-24T01:29:31;18.27;;;11.73;;
21731;SDS011;11028;51.156;17.130;2023-04-24T01:36:51;19.48;;;11.57;;
21731;SDS011;11028;51.156;17.130;2023-04-24T01:44:11;19.27;;;11.95;;
21731;SDS011;11028;51.156;17.130;2023-04-24T01:51:30;19.73;;;12.45;;
21731;SDS011;11028;51.156;17.130;2023-04-24T01:58:48;22.83;;;12.80;;
21731;SDS011;11028;51.156;17.130;2023-04-24T02:06:09;21.42;;;12.57;;
21731;SDS011;11028;51.156;17.130;2023-04-24T02:13:27;19.48;;;12.45;;
21731;SDS011;11028;51.156;17.130;2023-04-24T02:20:45;20.52;;;13.02;;
21731;SDS011;11028;51.156;17.130;2023-04-24T02:28:05;19.83;;;13.25;;
21731;SDS011;11028;51.156;17.130;2023-04-24T02:35:26;20.02;;;14.10;;
21731;SDS011;11028;51.156;17.130;2023-04-24T02:42:44;20.42;;;13.88;;
21731;SDS011;11028;51.156;17.130;2023-04-24T02:50:05;21.85;;;15.23;;
21731;SDS011;11028;51.156;17.130;2023-04-24T02:57:25;23.55;;;15.45;;
21731;SDS011;11028;51.156;17.130;2023-04-24T03:04:43;23.20;;;14.23;;
21731;SDS011;11028;51.156;17.130;2023-04-24T03:12:03;23.83;;;14.55;;
21731;SDS011;11028;51.156;17.130;2023-04-24T03:19:22;24.38;;;15.30;;
21731;SDS011;11028;51.156;17.130;2023-04-24T03:26:48;21.60;;;15.05;;
21731;SDS011;11028;51.156;17.130;2023-04-24T03:34:26;22.73;;;14.48;;
21731;SDS011;11028;51.156;17.130;2023-04-24T03:41:46;25.65;;;14.55;;
21731;SDS011;11028;51.156;17.130;2023-04-24T03:56:33;24.85;;;13.95;;
21731;SDS011;11028;51.156;17.130;2023-04-24T04:03:52;23.67;;;14.90;;
21731;SDS011;11028;51.156;17.130;2023-04-24T04:11:13;26.83;;;14.27;;
21731;SDS011;11028;51.156;17.130;2023-04-24T04:18:35;21.17;;;13.85;;
21731;SDS011;11028;51.156;17.130;2023-04-24T04:25:56;20.98;;;14.00;;
21731;SDS011;11028;51.156;17.130;2023-04-24T04:33:26;21.08;;;13.52;;
21731;SDS011;11028;51.156;17.130;2023-04-24T04:40:46;25.20;;;14.70;;
21731;SDS011;11028;51.156;17.130;2023-04-24T04:48:06;23.30;;;13.07;;
21731;SDS011;11028;51.156;17.130;2023-04-24T04:55:26;22.85;;;12.63;;
21731;SDS011;11028;51.156;17.130;2023-04-24T05:10:38;18.80;;;12.40;;
21731;SDS011;11028;51.156;17.130;2023-04-24T05:17:57;18.95;;;11.98;;
21731;SDS011;11028;51.156;17.130;2023-04-24T05:25:18;17.90;;;9.60;;
21731;SDS011;11028;51.156;17.130;2023-04-24T05:32:43;16.83;;;10.15;;
21731;SDS011;11028;51.156;17.130;2023-04-24T05:40:02;19.45;;;10.38;;
21731;SDS011;11028;51.156;17.130;2023-04-24T05:47:23;16.98;;;10.32;;
21731;SDS011;11028;51.156;17.130;2023-04-24T05:54:43;18.45;;;10.73;;
21731;SDS011;11028;51.156;17.130;2023-04-24T06:02:07;20.63;;;10.77;;
21731;SDS011;11028;51.156;17.130;2023-04-24T06:09:27;14.70;;;9.15;;
21731;SDS011;11028;51.156;17.130;2023-04-24T06:16:46;11.88;;;7.03;;
21731;SDS011;11028;51.156;17.130;2023-04-24T06:24:19;10.70;;;6.60;;
21731;SDS011;11028;51.156;17.130;2023-04-24T06:31:39;10.57;;;5.85;;
21731;SDS011;11028;51.156;17.130;2023-04-24T06:38:59;10.10;;;5.80;;
21731;SDS011;11028;51.156;17.130;2023-04-24T06:46:17;8.32;;;6.10;;
21731;SDS011;11028;51.156;17.130;2023-04-24T06:53:40;8.60;;;6.03;;
21731;SDS011;11028;51.156;17.130;2023-04-24T07:00:59;10.80;;;6.70;;
21731;SDS011;11028;51.156;17.130;2023-04-24T07:08:17;10.50;;;6.40;;
21731;SDS011;11028;51.156;17.130;2023-04-24T07:15:39;8.25;;;6.10;;
21731;SDS011;11028;51.156;17.130;2023-04-24T07:22:58;11.00;;;6.53;;
21731;SDS011;11028;51.156;17.130;2023-04-24T07:30:16;9.63;;;5.90;;
21731;SDS011;11028;51.156;17.130;2023-04-24T07:37:36;9.50;;;6.13;;
21731;SDS011;11028;51.156;17.130;2023-04-24T07:44:55;7.13;;;5.53;;
21731;SDS011;11028;51.156;17.130;2023-04-24T07:52:13;8.15;;;5.22;;
21731;SDS011;11028;51.156;17.130;2023-04-24T07:59:33;16.05;;;6.10;;
21731;SDS011;11028;51.156;17.130;2023-04-24T08:06:51;8.85;;;5.55;;
21731;SDS011;11028;51.156;17.130;2023-04-24T08:14:10;61.10;;;13.93;;
21731;SDS011;11028;51.156;17.130;2023-04-24T08:21:31;13.55;;;6.80;;
21731;SDS011;11028;51.156;17.130;2023-04-24T08:28:49;12.82;;;6.35;;
21731;SDS011;11028;51.156;17.130;2023-04-24T08:36:08;21.88;;;6.60;;
21731;SDS011;11028;51.156;17.130;2023-04-24T08:43:28;12.15;;;6.80;;
21731;SDS011;11028;51.156;17.130;2023-04-24T08:50:46;48.78;;;13.60;;
21731;SDS011;11028;51.156;17.130;2023-04-24T08:58:06;22.42;;;8.88;;
21731;SDS011;11028;51.156;17.130;2023-04-24T09:05:26;14.07;;;6.90;;
21731;SDS011;11028;51.156;17.130;2023-04-24T09:12:45;17.83;;;8.77;;
21731;SDS011;11028;51.156;17.130;2023-04-24T09:20:04;20.63;;;8.43;;
21731;SDS011;11028;51.156;17.130;2023-04-24T09:27:24;19.15;;;6.85;;
21731;SDS011;11028;51.156;17.130;2023-04-24T09:34:43;9.07;;;6.57;;
21731;SDS011;11028;51.156;17.130;2023-04-24T09:42:01;10.80;;;6.50;;
21731;SDS011;11028;51.156;17.130;2023-04-24T09:49:22;13.70;;;7.70;;
21731;SDS011;11028;51.156;17.130;2023-04-24T09:56:42;9.57;;;7.03;;
21731;SDS011;11028;51.156;17.130;2023-04-24T10:04:01;11.93;;;5.90;;
21731;SDS011;11028;51.156;17.130;2023-04-24T10:11:21;11.75;;;6.18;;
21731;SDS011;11028;51.156;17.130;2023-04-24T10:18:39;10.73;;;6.05;;
21731;SDS011;11028;51.156;17.130;2023-04-24T10:25:58;11.02;;;4.63;;
21731;SDS011;11028;51.156;17.130;2023-04-24T10:33:19;8.13;;;6.13;;
21731;SDS011;11028;51.156;17.130;2023-04-24T10:40:41;9.17;;;5.30;;
21731;SDS011;11028;51.156;17.130;2023-04-24T10:48:01;11.52;;;5.00;;
21731;SDS011;11028;51.156;17.130;2023-04-24T10:55:43;10.43;;;5.35;;
21731;SDS011;11028;51.156;17.130;2023-04-24T11:03:03;9.77;;;5.82;;
21731;SDS011;11028;51.156;17.130;2023-04-24T11:10:26;7.28;;;5.70;;
21731;SDS011;11028;51.156;17.130;2023-04-24T11:17:46;9.45;;;5.43;;
21731;SDS011;11028;51.156;17.130;2023-04-24T11:25:04;8.65;;;5.88;;
21731;SDS011;11028;51.156;17.130;2023-04-24T11:32:24;8.57;;;5.50;;
21731;SDS011;11028;51.156;17.130;2023-04-24T11:39:45;7.15;;;5.20;;
21731;SDS011;11028;51.156;17.130;2023-04-24T11:47:05;10.55;;;5.40;;
21731;SDS011;11028;51.156;17.130;2023-04-24T11:54:23;9.93;;;7.05;;
21731;SDS011;11028;51.156;17.130;2023-04-24T12:01:46;13.25;;;7.32;;
21731;SDS011;11028;51.156;17.130;2023-04-24T12:09:05;10.15;;;6.57;;
21731;SDS011;11028;51.156;17.130;2023-04-24T12:16:34;8.88;;;6.28;;
21731;SDS011;11028;51.156;17.130;2023-04-24T12:23:55;7.68;;;6.03;;
21731;SDS011;11028;51.156;17.130;2023-04-24T12:31:13;11.25;;;6.47;;
21731;SDS011;11028;51.156;17.130;2023-04-24T12:38:31;11.55;;;6.38;;
21731;SDS011;11028;51.156;17.130;2023-04-24T12:45:58;13.55;;;6.38;;
21731;SDS011;11028;51.156;17.130;2023-04-24T12:53:16;11.10;;;6.32;;
21731;SDS011;11028;51.156;17.130;2023-04-24T13:00:34;7.57;;;5.35;;
21731;SDS011;11028;51.156;17.130;2023-04-24T13:07:55;6.85;;;4.75;;
21731;SDS011;11028;51.156;17.130;2023-04-24T13:15:13;5.47;;;4.75;;
21731;SDS011;11028;51.156;17.130;2023-04-24T13:22:32;12.43;;;6.13;;
21731;SDS011;11028;51.156;17.130;2023-04-24T13:29:51;6.18;;;3.15;;
21731;SDS011;11028;51.156;17.130;2023-04-24T13:37:10;6.55;;;3.35;;
21731;SDS011;11028;51.156;17.130;2023-04-24T13:44:28;3.28;;;2.40;;
21731;SDS011;11028;51.156;17.130;2023-04-24T13:51:48;5.53;;;2.65;;
21731;SDS011;11028;51.156;17.130;2023-04-24T13:59:07;4.00;;;2.75;;
21731;SDS011;11028;51.156;17.130;2023-04-24T14:06:30;2.90;;;2.40;;
21731;SDS011;11028;51.156;17.130;2023-04-24T14:13:50;4.43;;;2.10;;
21731;SDS011;11028;51.156;17.130;2023-04-24T14:21:08;2.72;;;1.30;;
21731;SDS011;11028;51.156;17.130;2023-04-24T14:28:26;2.72;;;1.50;;
21731;SDS011;11028;51.156;17.130;2023-04-24T14:35:46;9.10;;;4.15;;
21731;SDS011;11028;51.156;17.130;2023-04-24T14:43:04;3.03;;;1.52;;
21731;SDS011;11028;51.156;17.130;2023-04-24T14:50:23;5.07;;;1.67;;
21731;SDS011;11028;51.156;17.130;2023-04-24T14:57:46;2.70;;;1.75;;
21731;SDS011;11028;51.156;17.130;2023-04-24T15:05:04;5.03;;;1.92;;
21731;SDS011;11028;51.156;17.130;2023-04-24T15:12:24;3.28;;;2.10;;
21731;SDS011;11028;51.156;17.130;2023-04-24T15:19:45;6.65;;;3.35;;
21731;SDS011;11028;51.156;17.130;2023-04-24T15:27:03;5.65;;;3.03;;
21731;SDS011;11028;51.156;17.130;2023-04-24T15:34:21;3.03;;;2.45;;
21731;SDS011;11028;51.156;17.130;2023-04-24T15:41:41;5.22;;;2.63;;
21731;SDS011;11028;51.156;17.130;2023-04-24T15:48:59;9.60;;;3.78;;
21731;SDS011;11028;51.156;17.130;2023-04-24T15:56:18;6.55;;;2.90;;
21731;SDS011;11028;51.156;17.130;2023-04-24T16:03:38;4.82;;;2.33;;
21731;SDS011;11028;51.156;17.130;2023-04-24T16:10:57;4.53;;;2.22;;
21731;SDS011;11028;51.156;17.130;2023-04-24T16:18:15;5.72;;;2.63;;
21731;SDS011;11028;51.156;17.130;2023-04-24T16:25:35;6.88;;;3.35;;
21731;SDS011;11028;51.156;17.130;2023-04-24T16:32:54;8.50;;;5.00;;
21731;SDS011;11028;51.156;17.130;2023-04-24T16:40:12;14.27;;;5.78;;
21731;SDS011;11028;51.156;17.130;2023-04-24T16:47:32;8.25;;;4.05;;
21731;SDS011;11028;51.156;17.130;2023-04-24T16:54:50;4.28;;;2.70;;
21731;SDS011;11028;51.156;17.130;2023-04-24T17:02:08;5.47;;;3.75;;
21731;SDS011;11028;51.156;17.130;2023-04-24T17:09:28;15.32;;;8.15;;
21731;SDS011;11028;51.156;17.130;2023-04-24T17:16:46;8.95;;;5.43;;
21731;SDS011;11028;51.156;17.130;2023-04-24T17:24:04;9.95;;;5.25;;
21731;SDS011;11028;51.156;17.130;2023-04-24T17:31:25;21.70;;;8.35;;
21731;SDS011;11028;51.156;17.130;2023-04-24T17:38:44;12.05;;;6.22;;
21731;SDS011;11028;51.156;17.130;2023-04-24T17:46:02;8.40;;;4.78;;
21731;SDS011;11028;51.156;17.130;2023-04-24T17:53:24;8.18;;;5.28;;
21731;SDS011;11028;51.156;17.130;2023-04-24T18:00:42;8.48;;;5.05;;
21731;SDS011;11028;51.156;17.130;2023-04-24T18:08:01;10.75;;;5.72;;
21731;SDS011;11028;51.156;17.130;2023-04-24T18:15:22;15.60;;;8.00;;
21731;SDS011;11028;51.156;17.130;2023-04-24T18:22:42;10.57;;;6.90;;
21731;SDS011;11028;51.156;17.130;2023-04-24T18:30:01;12.55;;;7.40;;
21731;SDS011;11028;51.156;17.130;2023-04-24T18:37:21;10.30;;;6.93;;
21731;SDS011;11028;51.156;17.130;2023-04-24T18:44:40;10.57;;;6.65;;
21731;SDS011;11028;51.156;17.130;2023-04-24T18:51:59;12.57;;;7.97;;
21731;SDS011;11028;51.156;17.130;2023-04-24T18:59:19;12.05;;;6.63;;
21731;SDS011;11028;51.156;17.130;2023-04-24T19:06:37;14.25;;;7.40;;
21731;SDS011;11028;51.156;17.130;2023-04-24T19:13:55;10.20;;;6.47;;
21731;SDS011;11028;51.156;17.130;2023-04-24T19:21:17;10.10;;;6.05;;
21731;SDS011;11028;51.156;17.130;2023-04-24T19:28:35;8.45;;;4.47;;
21731;SDS011;11028;51.156;17.130;2023-04-24T19:35:54;9.98;;;6.10;;
21731;SDS011;11028;51.156;17.130;2023-04-24T19:43:14;12.88;;;7.10;;
21731;SDS011;11028;51.156;17.130;2023-04-24T19:50:32;11.15;;;6.07;;
21731;SDS011;11028;51.156;17.130;2023-04-24T19:57:50;22.63;;;10.75;;
21731;SDS011;11028;51.156;17.130;2023-04-24T20:05:10;15.40;;;9.30;;
21731;SDS011;11028;51.156;17.130;2023-04-24T20:12:28;17.08;;;8.65;;
21731;SDS011;11028;51.156;17.130;2023-04-24T20:19:46;13.65;;;9.18;;
21731;SDS011;11028;51.156;17.130;2023-04-24T20:27:06;15.35;;;9.40;;
21731;SDS011;11028;51.156;17.130;2023-04-24T20:34:25;20.92;;;9.70;;
21731;SDS011;11028;51.156;17.130;2023-04-24T20:41:43;18.05;;;10.27;;
21731;SDS011;11028;51.156;17.130;2023-04-24T20:49:03;14.95;;;9.77;;
21731;SDS011;11028;51.156;17.130;2023-04-24T20:56:21;18.08;;;8.23;;
21731;SDS011;11028;51.156;17.130;2023-04-24T21:03:41;11.43;;;7.38;;
21731;SDS011;11028;51.156;17.130;2023-04-24T21:11:01;10.23;;;6.55;;
21731;SDS011;11028;51.156;17.130;2023-04-24T21:18:19;9.00;;;5.85;;
21731;SDS011;11028;51.156;17.130;2023-04-24T21:25:37;9.57;;;6.63;;
21731;SDS011;11028;51.156;17.130;2023-04-24T21:32:57;10.80;;;5.82;;
21731;SDS011;11028;51.156;17.130;2023-04-24T21:40:16;9.40;;;5.93;;
21731;SDS011;11028;51.156;17.130;2023-04-24T21:47:35;10.52;;;5.00;;
21731;SDS011;11028;51.156;17.130;2023-04-24T21:54:55;7.57;;;4.78;;
21731;SDS011;11028;51.156;17.130;2023-04-24T22:02:13;13.02;;;5.65;;
21731;SDS011;11028;51.156;17.130;2023-04-24T22:09:32;10.20;;;5.75;;
21731;SDS011;11028;51.156;17.130;2023-04-24T22:16:51;10.38;;;5.72;;
21731;SDS011;11028;51.156;17.130;2023-04-24T22:24:12;7.47;;;4.47;;
21731;SDS011;11028;51.156;17.130;2023-04-24T22:31:30;5.95;;;4.35;;
21731;SDS011;11028;51.156;17.130;2023-04-24T22:38:50;5.75;;;3.70;;
21731;SDS011;11028;51.156;17.130;2023-04-24T22:46:09;9.18;;;3.38;;
21731;SDS011;11028;51.156;17.130;2023-04-24T22:53:28;7.00;;;3.13;;
21731;SDS011;11028;51.156;17.130;2023-04-24T23:00:48;5.43;;;3.28;;
21731;SDS011;11028;51.156;17.130;2023-04-24T23:08:06;8.25;;;3.28;;
21731;SDS011;11028;51.156;17.130;2023-04-24T23:15:24;7.78;;;2.90;;
21731;SDS011;11028;51.156;17.130;2023-04-24T23:22:44;4.88;;;3.08;;
21731;SDS011;11028;51.156;17.130;2023-04-24T23:30:02;7.40;;;2.75;;
21731;SDS011;11028;51.156;17.130;2023-04-24T23:37:22;3.35;;;2.65;;
21731;SDS011;11028;51.156;17.130;2023-04-24T23:44:42;3.95;;;2.30;;
21731;SDS011;11028;51.156;17.130;2023-04-24T23:52:00;6.55;;;2.47;;
21731;SDS011;11028;51.156;17.130;2023-04-24T23:59:19;6.43;;;2.10;;
